createdAt,value
2022-11-16T00:00:20.312Z,9.80
2022-11-16T00:01:20.315Z,9.60
2022-11-16T00:02:20.353Z,9.60
2022-11-16T00:03:20.267Z,9.10
2022-11-16T00:04:20.275Z,9.20
2022-11-16T00:05:24.219Z,9.10
2022-11-16T00:06:22.262Z,8.70
2022-11-16T00:07:20.312Z,8.60
2022-11-16T00:08:20.284Z,8.80
2022-11-16T00:09:20.267Z,9.00
2022-11-16T00:10:20.264Z,9.00
2022-11-16T00:11:20.338Z,8.70
2022-11-16T00:12:20.251Z,9.00
2022-11-16T00:13:20.234Z,8.30
2022-11-16T00:14:20.218Z,7.90
2022-11-16T00:15:20.343Z,7.60
2022-11-16T00:16:20.224Z,7.80
2022-11-16T00:17:20.248Z,8.00
2022-11-16T00:18:20.222Z,7.10
2022-11-16T00:19:20.195Z,7.50
2022-11-16T00:20:20.186Z,7.60
2022-11-16T00:21:20.211Z,7.90
2022-11-16T00:22:20.188Z,8.10
2022-11-16T00:23:20.198Z,7.90
2022-11-16T00:24:20.188Z,7.80
2022-11-16T00:25:20.180Z,7.90
2022-11-16T00:26:20.259Z,7.70
2022-11-16T00:27:20.426Z,7.80
2022-11-16T00:28:20.158Z,8.40
2022-11-16T00:29:20.160Z,7.90
2022-11-16T00:30:20.216Z,7.90
2022-11-16T00:31:20.157Z,8.60
2022-11-16T00:32:20.183Z,8.70
2022-11-16T00:33:20.132Z,8.60
2022-11-16T00:34:20.128Z,8.90
2022-11-16T00:35:20.142Z,9.20
2022-11-16T00:36:20.131Z,8.30
2022-11-16T00:37:20.119Z,8.10
2022-11-16T00:38:20.115Z,8.60
2022-11-16T00:39:20.174Z,8.50
2022-11-16T00:40:20.090Z,9.00
2022-11-16T00:41:20.092Z,9.00
2022-11-16T00:42:20.119Z,9.10
2022-11-16T00:43:20.123Z,9.00
2022-11-16T00:44:20.122Z,9.00
2022-11-16T00:45:20.072Z,8.90
2022-11-16T00:46:20.059Z,8.30
2022-11-16T00:47:21.067Z,8.90
2022-11-16T00:48:20.101Z,9.30
2022-11-16T00:49:20.048Z,8.90
2022-11-16T00:50:20.067Z,8.50
2022-11-16T00:51:20.051Z,8.50
2022-11-16T00:52:20.074Z,8.40
2022-11-16T00:53:20.045Z,8.80
2022-11-16T00:54:20.047Z,8.60
2022-11-16T00:55:20.058Z,8.50
2022-11-16T00:56:20.011Z,8.60
2022-11-16T00:57:19.997Z,8.50
2022-11-16T00:58:20.024Z,9.10
2022-11-16T00:59:20.085Z,8.40
2022-11-16T01:00:20.040Z,7.90
2022-11-16T01:01:20.042Z,9.20
2022-11-16T01:02:19.971Z,8.50
2022-11-16T01:03:20.977Z,9.00
2022-11-16T01:04:19.979Z,9.20
2022-11-16T01:05:19.991Z,9.10
2022-11-16T01:06:20.974Z,9.20
2022-11-16T01:07:20.035Z,9.70
2022-11-16T01:08:19.952Z,9.90
2022-11-16T01:09:19.961Z,9.50
2022-11-16T01:10:19.971Z,9.40
2022-11-16T01:11:19.939Z,9.70
2022-11-16T01:12:19.976Z,9.60
2022-11-16T01:13:19.941Z,9.90
2022-11-16T01:14:19.959Z,9.60
2022-11-16T01:15:19.943Z,10.10
2022-11-16T01:16:19.955Z,10.30
2022-11-16T01:17:19.957Z,9.90
2022-11-16T01:18:19.918Z,9.80
2022-11-16T01:19:19.910Z,9.10
2022-11-16T01:20:19.901Z,10.00
2022-11-16T01:21:19.921Z,8.80
2022-11-16T01:22:19.893Z,10.00
2022-11-16T01:23:19.910Z,9.20
2022-11-16T01:24:19.907Z,9.40
2022-11-16T01:25:19.872Z,8.60
2022-11-16T01:26:19.875Z,9.10
2022-11-16T01:27:19.899Z,8.40
2022-11-16T01:28:19.887Z,9.80
2022-11-16T01:29:19.861Z,11.30
2022-11-16T01:30:19.879Z,12.30
2022-11-16T01:31:19.847Z,11.10
2022-11-16T01:32:19.876Z,10.70
2022-11-16T01:33:19.865Z,11.10
2022-11-16T01:34:19.846Z,10.80
2022-11-16T01:35:19.823Z,10.30
2022-11-16T01:36:19.808Z,10.40
2022-11-16T01:37:19.832Z,10.00
2022-11-16T01:38:19.807Z,10.50
2022-11-16T01:39:19.847Z,10.50
2022-11-16T01:40:19.816Z,9.60
2022-11-16T01:41:19.800Z,9.00
2022-11-16T01:42:19.841Z,9.00
2022-11-16T01:43:19.802Z,8.70
2022-11-16T01:44:19.810Z,8.80
2022-11-16T01:45:19.790Z,9.20
2022-11-16T01:46:19.769Z,9.50
2022-11-16T01:47:19.757Z,10.00
2022-11-16T01:48:19.818Z,9.10
2022-11-16T01:49:19.778Z,8.80
2022-11-16T01:50:19.774Z,9.60
2022-11-16T01:51:19.731Z,9.30
2022-11-16T01:52:19.762Z,9.80
2022-11-16T01:53:19.739Z,9.70
2022-11-16T01:54:19.723Z,9.50
2022-11-16T01:55:19.739Z,9.80
2022-11-16T01:56:19.715Z,9.70
2022-11-16T01:57:19.694Z,9.70
2022-11-16T01:58:19.698Z,9.20
2022-11-16T01:59:19.693Z,10.10
2022-11-16T02:00:19.720Z,9.90
2022-11-16T02:01:19.773Z,9.20
2022-11-16T02:02:19.689Z,9.70
2022-11-16T02:03:19.696Z,9.40
2022-11-16T02:04:19.663Z,10.30
2022-11-16T02:05:19.697Z,9.20
2022-11-16T02:06:19.659Z,9.30
2022-11-16T02:07:19.750Z,9.30
2022-11-16T02:08:19.654Z,8.80
2022-11-16T02:09:19.646Z,9.10
2022-11-16T02:10:19.641Z,9.60
2022-11-16T02:11:19.640Z,8.80
2022-11-16T02:12:19.665Z,9.50
2022-11-16T02:13:19.639Z,9.20
2022-11-16T02:14:19.637Z,8.70
2022-11-16T02:15:19.625Z,8.90
2022-11-16T02:16:19.746Z,9.40
2022-11-16T02:17:19.631Z,9.30
2022-11-16T02:18:19.611Z,9.70
2022-11-16T02:19:19.602Z,9.50
2022-11-16T02:20:19.620Z,9.20
2022-11-16T02:21:19.595Z,9.40
2022-11-16T02:22:19.617Z,8.90
2022-11-16T02:23:19.620Z,9.40
2022-11-16T02:24:19.612Z,8.90
2022-11-16T02:25:19.599Z,9.70
2022-11-16T02:26:19.583Z,9.80
2022-11-16T02:27:19.556Z,9.10
2022-11-16T02:28:19.626Z,9.10
2022-11-16T02:29:19.582Z,9.80
2022-11-16T02:30:19.547Z,9.10
2022-11-16T02:31:20.537Z,9.30
2022-11-16T02:32:19.557Z,9.80
2022-11-16T02:33:19.560Z,9.50
2022-11-16T02:34:19.520Z,9.50
2022-11-16T02:35:19.515Z,9.70
2022-11-16T02:36:19.513Z,9.60
2022-11-16T02:37:19.512Z,9.90
2022-11-16T02:38:19.525Z,10.00
2022-11-16T02:39:19.518Z,9.50
2022-11-16T02:40:19.484Z,9.50
2022-11-16T02:41:19.513Z,9.60
2022-11-16T02:42:19.506Z,8.80
2022-11-16T02:43:19.470Z,9.20
2022-11-16T02:44:19.495Z,9.60
2022-11-16T02:45:19.456Z,9.10
2022-11-16T02:46:19.465Z,9.30
2022-11-16T02:47:19.440Z,10.00
2022-11-16T02:48:19.445Z,10.00
2022-11-16T02:49:19.463Z,9.30
2022-11-16T02:50:19.439Z,9.20
2022-11-16T02:51:19.467Z,8.90
2022-11-16T02:52:19.424Z,9.60
2022-11-16T02:53:19.467Z,9.30
2022-11-16T02:54:19.421Z,9.90
2022-11-16T02:55:19.432Z,8.90
2022-11-16T02:56:19.396Z,9.80
2022-11-16T02:57:19.400Z,9.40
2022-11-16T02:58:19.378Z,9.30
2022-11-16T02:59:19.384Z,9.70
2022-11-16T03:00:19.424Z,9.50
2022-11-16T03:01:19.502Z,9.80
2022-11-16T03:02:19.365Z,9.80
2022-11-16T03:03:19.379Z,10.00
2022-11-16T03:04:19.369Z,10.00
2022-11-16T03:05:19.361Z,9.80
2022-11-16T03:06:19.378Z,9.90
2022-11-16T03:07:19.369Z,10.00
2022-11-16T03:08:19.334Z,9.70
2022-11-16T03:09:19.333Z,11.60
2022-11-16T03:10:19.323Z,11.00
2022-11-16T03:11:19.366Z,10.20
2022-11-16T03:12:19.306Z,10.90
2022-11-16T03:13:19.344Z,10.60
2022-11-16T03:14:19.318Z,10.80
2022-11-16T03:15:19.301Z,10.00
2022-11-16T03:16:19.331Z,10.50
2022-11-16T03:17:19.324Z,10.10
2022-11-16T03:18:19.299Z,9.90
2022-11-16T03:19:19.331Z,10.50
2022-11-16T03:20:19.306Z,10.30
2022-11-16T03:21:19.268Z,11.30
2022-11-16T03:22:19.298Z,10.90
2022-11-16T03:23:19.261Z,10.80
2022-11-16T03:24:19.256Z,9.50
2022-11-16T03:25:19.246Z,9.70
2022-11-16T03:26:19.244Z,10.70
2022-11-16T03:27:19.297Z,9.80
2022-11-16T03:28:19.264Z,9.80
2022-11-16T03:29:19.266Z,10.40
2022-11-16T03:30:23.322Z,11.30
2022-11-16T03:31:20.218Z,10.80
2022-11-16T03:32:19.206Z,10.60
2022-11-16T03:33:19.251Z,10.60
2022-11-16T03:34:19.223Z,10.90
2022-11-16T03:35:19.201Z,11.20
2022-11-16T03:36:19.197Z,11.10
2022-11-16T03:37:19.202Z,11.30
2022-11-16T03:38:19.187Z,11.10
2022-11-16T03:39:19.220Z,10.80
2022-11-16T03:40:19.161Z,10.90
2022-11-16T03:41:19.162Z,11.90
2022-11-16T03:42:19.189Z,11.50
2022-11-16T03:43:19.190Z,11.80
2022-11-16T03:44:19.166Z,11.50
2022-11-16T03:45:19.161Z,11.30
2022-11-16T03:46:19.169Z,12.20
2022-11-16T03:47:19.164Z,11.50
2022-11-16T03:48:19.184Z,11.80
2022-11-16T03:49:19.217Z,11.70
2022-11-16T03:50:19.131Z,12.20
2022-11-16T03:51:19.149Z,11.90
2022-11-16T03:52:19.120Z,11.80
2022-11-16T03:53:19.109Z,12.10
2022-11-16T03:54:19.112Z,12.20
2022-11-16T03:55:19.104Z,12.60
2022-11-16T03:56:19.127Z,12.60
2022-11-16T03:57:19.146Z,11.90
2022-11-16T03:58:19.088Z,11.80
2022-11-16T03:59:19.237Z,12.20
2022-11-16T04:00:19.091Z,12.20
2022-11-16T04:01:19.145Z,12.10
2022-11-16T04:02:19.112Z,12.10
2022-11-16T04:03:19.074Z,11.80
2022-11-16T04:04:19.078Z,11.90
2022-11-16T04:05:19.061Z,12.30
2022-11-16T04:06:19.170Z,13.00
2022-11-16T04:07:19.098Z,12.60
2022-11-16T04:08:19.108Z,12.00
2022-11-16T04:09:19.061Z,12.40
2022-11-16T04:10:19.034Z,12.60
2022-11-16T04:11:19.028Z,12.40
2022-11-16T04:12:19.019Z,13.00
2022-11-16T04:13:19.042Z,12.10
2022-11-16T04:14:19.002Z,13.20
2022-11-16T04:15:19.016Z,11.90
2022-11-16T04:16:19.065Z,11.90
2022-11-16T04:17:19.002Z,12.20
2022-11-16T04:18:19.025Z,12.30
2022-11-16T04:19:18.996Z,12.50
2022-11-16T04:20:18.987Z,12.60
2022-11-16T04:21:18.987Z,12.20
2022-11-16T04:22:18.969Z,12.50
2022-11-16T04:23:18.993Z,12.70
2022-11-16T04:24:18.993Z,12.50
2022-11-16T04:25:19.000Z,13.00
2022-11-16T04:26:18.962Z,13.00
2022-11-16T04:27:18.956Z,13.60
2022-11-16T04:28:18.955Z,12.70
2022-11-16T04:29:19.004Z,12.60
2022-11-16T04:30:18.975Z,13.40
2022-11-16T04:31:18.966Z,13.80
2022-11-16T04:32:18.918Z,12.60
2022-11-16T04:33:18.981Z,12.90
2022-11-16T04:34:18.919Z,14.10
2022-11-16T04:35:18.923Z,14.10
2022-11-16T04:36:20.737Z,12.80
2022-11-16T04:37:19.920Z,12.70
2022-11-16T04:38:18.922Z,13.90
2022-11-16T04:39:18.928Z,13.50
2022-11-16T04:40:18.904Z,13.40
2022-11-16T04:41:18.995Z,13.10
2022-11-16T04:42:18.942Z,12.40
2022-11-16T04:43:18.878Z,13.40
2022-11-16T04:44:18.882Z,13.60
2022-11-16T04:45:18.885Z,13.30
2022-11-16T04:46:18.905Z,13.70
2022-11-16T04:47:18.927Z,14.00
2022-11-16T04:48:18.865Z,14.20
2022-11-16T04:49:18.868Z,14.20
2022-11-16T04:50:18.865Z,14.50
2022-11-16T04:51:19.837Z,14.70
2022-11-16T04:52:18.883Z,13.80
2022-11-16T04:53:18.869Z,14.60
2022-11-16T04:54:18.846Z,15.80
2022-11-16T04:55:18.827Z,15.50
2022-11-16T04:56:18.816Z,15.20
2022-11-16T04:57:18.838Z,15.80
2022-11-16T04:58:18.845Z,15.00
2022-11-16T04:59:18.817Z,15.40
2022-11-16T05:00:18.809Z,15.60
2022-11-16T05:01:18.851Z,15.50
2022-11-16T05:02:18.795Z,16.10
2022-11-16T05:03:18.813Z,15.90
2022-11-16T05:04:18.815Z,16.30
2022-11-16T05:05:18.783Z,17.20
2022-11-16T05:06:18.771Z,17.60
2022-11-16T05:07:18.811Z,17.10
2022-11-16T05:08:18.774Z,17.00
2022-11-16T05:09:18.805Z,19.00
2022-11-16T05:10:18.781Z,18.70
2022-11-16T05:11:19.759Z,19.30
2022-11-16T05:12:18.756Z,20.70
2022-11-16T05:13:18.750Z,19.90
2022-11-16T05:14:18.752Z,21.30
2022-11-16T05:15:18.758Z,20.70
2022-11-16T05:16:18.732Z,21.20
2022-11-16T05:17:18.736Z,21.10
2022-11-16T05:18:18.731Z,22.30
2022-11-16T05:19:18.705Z,22.90
2022-11-16T05:20:18.714Z,23.30
2022-11-16T05:21:18.707Z,23.10
2022-11-16T05:22:18.686Z,24.00
2022-11-16T05:23:18.693Z,25.20
2022-11-16T05:24:18.691Z,23.70
2022-11-16T05:25:18.705Z,26.10
2022-11-16T05:26:18.661Z,24.80
2022-11-16T05:27:18.689Z,25.50
2022-11-16T05:28:18.672Z,25.80
2022-11-16T05:29:18.658Z,25.60
2022-11-16T05:30:18.695Z,26.40
2022-11-16T05:31:18.681Z,27.40
2022-11-16T05:32:18.670Z,27.50
2022-11-16T05:33:18.670Z,28.10
2022-11-16T05:34:18.641Z,26.10
2022-11-16T05:35:18.630Z,27.90
2022-11-16T05:36:18.629Z,28.40
2022-11-16T05:37:18.664Z,27.40
2022-11-16T05:38:18.617Z,28.80
2022-11-16T05:39:18.614Z,29.10
2022-11-16T05:40:18.605Z,30.20
2022-11-16T05:41:18.663Z,30.20
2022-11-16T05:42:18.621Z,30.70
2022-11-16T05:43:18.590Z,30.40
2022-11-16T05:44:18.595Z,32.50
2022-11-16T05:45:21.179Z,31.20
2022-11-16T05:46:19.577Z,32.40
2022-11-16T05:47:18.609Z,32.40
2022-11-16T05:48:18.560Z,32.70
2022-11-16T05:49:18.613Z,34.30
2022-11-16T05:50:18.578Z,33.30
2022-11-16T05:51:18.551Z,33.00
2022-11-16T05:52:18.584Z,32.60
2022-11-16T05:53:18.545Z,34.70
2022-11-16T05:54:18.551Z,33.80
2022-11-16T05:55:18.531Z,33.80
2022-11-16T05:56:18.596Z,33.40
2022-11-16T05:57:18.522Z,35.20
2022-11-16T05:58:18.590Z,33.60
2022-11-16T05:59:18.557Z,33.60
2022-11-16T06:00:18.518Z,33.30
2022-11-16T06:01:18.523Z,34.20
2022-11-16T06:02:18.502Z,34.90
2022-11-16T06:03:18.560Z,33.40
2022-11-16T06:04:24.190Z,34.00
2022-11-16T06:05:20.493Z,34.40
2022-11-16T06:06:18.491Z,34.70
2022-11-16T06:07:18.556Z,34.60
2022-11-16T06:08:18.460Z,33.80
2022-11-16T06:09:18.504Z,34.80
2022-11-16T06:10:18.474Z,33.60
2022-11-16T06:11:18.976Z,32.90
2022-11-16T06:12:18.459Z,34.50
2022-11-16T06:13:18.440Z,34.50
2022-11-16T06:14:18.449Z,33.70
2022-11-16T06:15:18.514Z,34.50
2022-11-16T06:16:18.770Z,33.60
2022-11-16T06:17:18.451Z,33.80
2022-11-16T06:18:18.437Z,32.50
2022-11-16T06:19:18.404Z,32.60
2022-11-16T06:20:18.443Z,33.10
2022-11-16T06:21:18.410Z,32.80
2022-11-16T06:22:18.415Z,33.10
2022-11-16T06:23:18.396Z,33.50
2022-11-16T06:24:18.412Z,32.00
2022-11-16T06:25:18.433Z,33.10
2022-11-16T06:26:18.379Z,34.20
2022-11-16T06:27:18.717Z,33.60
2022-11-16T06:28:18.366Z,32.60
2022-11-16T06:29:18.362Z,32.70
2022-11-16T06:30:18.358Z,31.80
2022-11-16T06:31:18.413Z,33.40
2022-11-16T06:32:20.169Z,34.00
2022-11-16T06:33:18.346Z,33.00
2022-11-16T06:34:18.382Z,33.70
2022-11-16T06:35:18.452Z,33.50
2022-11-16T06:36:18.350Z,32.20
2022-11-16T06:37:18.364Z,32.60
2022-11-16T06:38:18.332Z,32.40
2022-11-16T06:39:18.321Z,33.40
2022-11-16T06:40:18.316Z,32.20
2022-11-16T06:41:18.311Z,33.80
2022-11-16T06:42:18.482Z,32.80
2022-11-16T06:43:18.335Z,32.40
2022-11-16T06:44:18.296Z,32.10
2022-11-16T06:45:18.275Z,32.80
2022-11-16T06:46:18.290Z,32.00
2022-11-16T06:47:18.301Z,33.40
2022-11-16T06:48:18.259Z,33.00
2022-11-16T06:49:18.276Z,32.20
2022-11-16T06:50:18.247Z,32.60
2022-11-16T06:51:18.296Z,31.10
2022-11-16T06:52:18.255Z,33.00
2022-11-16T06:53:18.247Z,32.10
2022-11-16T06:54:18.243Z,31.50
2022-11-16T06:55:18.240Z,33.30
2022-11-16T06:56:18.258Z,31.50
2022-11-16T06:57:18.232Z,32.80
2022-11-16T06:58:18.204Z,31.40
2022-11-16T06:59:18.313Z,32.20
2022-11-16T07:00:18.262Z,33.00
2022-11-16T07:01:18.307Z,32.70
2022-11-16T07:02:18.192Z,33.30
2022-11-16T07:03:18.195Z,31.70
2022-11-16T07:04:18.464Z,32.60
2022-11-16T07:05:18.184Z,33.60
2022-11-16T07:06:18.187Z,32.80
2022-11-16T07:07:18.314Z,34.50
2022-11-16T07:08:18.161Z,35.40
2022-11-16T07:09:18.149Z,34.20
2022-11-16T07:10:18.160Z,35.80
2022-11-16T07:11:18.142Z,40.40
2022-11-16T07:12:18.171Z,42.90
2022-11-16T07:13:18.135Z,42.50
2022-11-16T07:14:18.194Z,41.90
2022-11-16T07:15:18.152Z,40.40
2022-11-16T07:16:18.122Z,38.00
2022-11-16T07:17:18.141Z,34.40
2022-11-16T07:18:18.148Z,37.10
2022-11-16T07:19:18.136Z,35.90
2022-11-16T07:20:18.326Z,36.80
2022-11-16T07:21:18.093Z,37.30
2022-11-16T07:22:18.108Z,36.90
2022-11-16T07:23:18.089Z,34.70
2022-11-16T07:24:18.138Z,35.10
2022-11-16T07:25:18.115Z,35.40
2022-11-16T07:26:18.053Z,36.00
2022-11-16T07:27:18.068Z,35.80
2022-11-16T07:28:18.097Z,34.00
2022-11-16T07:29:18.061Z,35.60
2022-11-16T07:30:18.082Z,35.30
2022-11-16T07:31:18.042Z,34.40
2022-11-16T07:32:18.041Z,36.00
2022-11-16T07:33:18.033Z,34.80
2022-11-16T07:34:18.044Z,34.80
2022-11-16T07:35:18.019Z,35.40
2022-11-16T07:36:18.022Z,35.60
2022-11-16T07:37:19.002Z,36.20
2022-11-16T07:38:18.341Z,34.70
2022-11-16T07:39:18.997Z,34.70
2022-11-16T07:40:17.978Z,35.60
2022-11-16T07:41:18.002Z,36.40
2022-11-16T07:42:18.035Z,35.80
2022-11-16T07:43:18.219Z,35.80
2022-11-16T07:44:17.975Z,35.60
2022-11-16T07:45:18.013Z,36.10
2022-11-16T07:47:19.964Z,35.50
2022-11-16T07:48:17.963Z,36.00
2022-11-16T07:49:17.944Z,36.40
2022-11-16T07:50:17.979Z,35.70
2022-11-16T07:51:17.940Z,36.40
2022-11-16T07:52:17.973Z,35.20
2022-11-16T07:53:17.928Z,35.40
2022-11-16T07:54:17.923Z,36.90
2022-11-16T07:55:17.930Z,37.80
2022-11-16T07:56:17.899Z,36.60
2022-11-16T07:57:18.019Z,37.70
2022-11-16T07:58:17.937Z,36.40
2022-11-16T07:59:17.887Z,39.50
2022-11-16T08:00:17.879Z,39.50
2022-11-16T08:01:17.952Z,39.50
2022-11-16T08:02:17.891Z,38.00
2022-11-16T08:03:21.887Z,37.90
2022-11-16T08:04:19.865Z,39.10
2022-11-16T08:05:17.837Z,39.10
2022-11-16T08:06:17.848Z,39.00
2022-11-16T08:07:17.930Z,38.30
2022-11-16T08:08:17.949Z,39.00
2022-11-16T08:09:17.878Z,39.00
2022-11-16T08:10:17.876Z,38.50
2022-11-16T08:11:17.840Z,39.90
2022-11-16T08:12:17.816Z,39.70
2022-11-16T08:13:17.836Z,39.30
2022-11-16T08:14:17.868Z,38.00
2022-11-16T08:15:17.799Z,40.00
2022-11-16T08:16:17.794Z,39.10
2022-11-16T08:17:17.813Z,37.60
2022-11-16T08:18:17.790Z,39.10
2022-11-16T08:19:17.803Z,38.10
2022-11-16T08:20:17.807Z,36.00
2022-11-16T08:21:17.795Z,37.20
2022-11-16T08:22:17.853Z,37.70
2022-11-16T08:23:17.748Z,36.80
2022-11-16T08:24:17.780Z,36.60
2022-11-16T08:25:17.752Z,38.40
2022-11-16T08:26:17.758Z,38.90
2022-11-16T08:27:17.740Z,38.70
2022-11-16T08:28:17.730Z,37.20
2022-11-16T08:29:17.716Z,37.80
2022-11-16T08:30:17.717Z,35.90
2022-11-16T08:31:17.730Z,37.70
2022-11-16T08:32:17.733Z,37.30
2022-11-16T08:33:17.697Z,36.60
2022-11-16T08:34:17.679Z,36.10
2022-11-16T08:35:17.701Z,37.20
2022-11-16T08:36:17.670Z,36.00
2022-11-16T08:37:17.684Z,37.20
2022-11-16T08:38:17.668Z,37.20
2022-11-16T08:39:17.724Z,36.30
2022-11-16T08:40:17.649Z,38.10
2022-11-16T08:41:17.669Z,39.80
2022-11-16T08:42:17.677Z,39.20
2022-11-16T08:43:17.699Z,39.30
2022-11-16T08:44:17.622Z,38.40
2022-11-16T08:45:17.617Z,39.40
2022-11-16T08:46:17.707Z,39.90
2022-11-16T08:47:17.652Z,38.90
2022-11-16T08:48:17.608Z,39.90
2022-11-16T08:49:17.621Z,40.40
2022-11-16T08:50:17.598Z,40.00
2022-11-16T08:51:19.251Z,39.90
2022-11-16T08:52:18.579Z,39.10
2022-11-16T08:53:18.587Z,40.20
2022-11-16T08:54:17.580Z,39.60
2022-11-16T08:55:17.560Z,41.70
2022-11-16T08:56:17.674Z,41.10
2022-11-16T08:57:17.565Z,39.90
2022-11-16T08:58:17.580Z,40.10
2022-11-16T08:59:17.556Z,39.30
2022-11-16T09:00:17.593Z,40.30
2022-11-16T09:01:17.638Z,39.10
2022-11-16T09:02:17.530Z,39.80
2022-11-16T09:03:17.533Z,40.10
2022-11-16T09:04:17.536Z,40.40
2022-11-16T09:05:17.515Z,39.00
2022-11-16T09:06:17.544Z,38.60
2022-11-16T09:07:17.545Z,39.80
2022-11-16T09:08:17.496Z,39.90
2022-11-16T09:09:17.478Z,38.70
2022-11-16T09:10:17.489Z,39.50
2022-11-16T09:11:17.502Z,37.30
2022-11-16T09:12:17.598Z,34.90
2022-11-16T09:13:17.485Z,35.90
2022-11-16T09:14:17.458Z,32.40
2022-11-16T09:15:17.441Z,32.80
2022-11-16T09:16:17.434Z,33.70
2022-11-16T09:17:22.813Z,34.00
2022-11-16T09:18:19.461Z,33.60
2022-11-16T09:19:17.426Z,30.80
2022-11-16T09:20:17.438Z,30.20
2022-11-16T09:21:17.402Z,30.90
2022-11-16T09:22:17.419Z,30.40
2022-11-16T09:23:22.270Z,27.70
2022-11-16T09:24:19.381Z,29.00
2022-11-16T09:25:17.398Z,27.50
2022-11-16T09:26:17.363Z,27.30
2022-11-16T09:27:17.392Z,27.00
2022-11-16T09:28:17.387Z,26.80
2022-11-16T09:29:17.387Z,25.60
2022-11-16T09:30:17.367Z,26.50
2022-11-16T09:31:22.951Z,27.60
2022-11-16T09:32:19.348Z,25.50
2022-11-16T09:33:17.359Z,25.60
2022-11-16T09:34:17.344Z,25.60
2022-11-16T09:35:17.347Z,25.80
2022-11-16T09:36:17.603Z,24.80
2022-11-16T09:37:17.329Z,22.70
2022-11-16T09:38:24.136Z,22.60
2022-11-16T09:39:31.071Z,22.50
2022-11-16T09:40:19.307Z,22.50
2022-11-16T09:41:17.279Z,23.00
2022-11-16T09:42:17.319Z,22.60
2022-11-16T09:43:17.280Z,21.60
2022-11-16T09:44:17.306Z,23.10
2022-11-16T09:45:17.295Z,20.90
2022-11-16T09:46:17.289Z,18.90
2022-11-16T09:47:17.288Z,17.00
2022-11-16T09:48:17.255Z,15.80
2022-11-16T09:49:17.973Z,16.50
2022-11-16T09:50:18.269Z,15.50
2022-11-16T09:51:17.231Z,16.40
2022-11-16T09:52:17.233Z,17.40
2022-11-16T09:53:17.231Z,16.30
2022-11-16T09:54:17.356Z,18.10
2022-11-16T09:55:17.226Z,17.40
2022-11-16T09:56:21.811Z,18.00
2022-11-16T09:57:19.216Z,16.50
2022-11-16T09:58:17.195Z,17.80
2022-11-16T09:59:18.281Z,16.10
2022-11-16T10:00:18.275Z,16.60
2022-11-16T10:01:17.316Z,16.10
2022-11-16T10:02:17.193Z,15.40
2022-11-16T10:03:17.159Z,16.00
2022-11-16T10:04:17.164Z,16.00
2022-11-16T10:05:17.160Z,15.60
2022-11-16T10:06:17.174Z,13.40
2022-11-16T10:07:17.147Z,13.20
2022-11-16T10:08:17.129Z,13.80
2022-11-16T10:09:17.123Z,12.60
2022-11-16T10:10:17.124Z,12.50
2022-11-16T10:11:17.163Z,11.60
2022-11-16T10:12:17.105Z,10.30
2022-11-16T10:13:17.089Z,9.60
2022-11-16T10:14:17.089Z,5.20
2022-11-16T10:15:17.098Z,5.00
2022-11-16T10:16:17.075Z,3.80
2022-11-16T10:17:17.100Z,3.50
2022-11-16T10:18:17.073Z,3.20
2022-11-16T10:19:17.049Z,3.00
2022-11-16T10:20:17.059Z,2.80
2022-11-16T10:21:17.100Z,3.50
2022-11-16T10:22:17.060Z,3.20
2022-11-16T10:23:17.063Z,3.00
2022-11-16T10:24:17.055Z,2.80
2022-11-16T10:25:17.055Z,2.80
2022-11-16T10:26:16.991Z,3.00
2022-11-16T10:27:21.833Z,3.30
2022-11-16T10:28:19.032Z,3.10
2022-11-16T10:29:16.999Z,3.20
2022-11-16T10:30:16.976Z,2.80
2022-11-16T10:31:16.973Z,3.10
2022-11-16T10:32:18.049Z,2.80
2022-11-16T10:33:17.012Z,3.10
2022-11-16T10:34:16.988Z,2.50
2022-11-16T10:35:16.962Z,2.50
2022-11-16T10:36:16.943Z,2.60
2022-11-16T10:37:16.935Z,2.40
2022-11-16T10:38:16.992Z,2.90
2022-11-16T10:39:16.956Z,2.50
2022-11-16T10:40:16.931Z,2.40
2022-11-16T10:41:16.917Z,2.40
2022-11-16T10:42:16.926Z,2.30
2022-11-16T10:43:16.918Z,2.60
2022-11-16T10:44:16.923Z,2.50
2022-11-16T10:45:16.895Z,2.30
2022-11-16T10:46:16.914Z,2.30
2022-11-16T10:47:16.887Z,1.90
2022-11-16T10:48:16.951Z,2.20
2022-11-16T10:49:16.995Z,2.30
2022-11-16T10:50:16.860Z,2.20
2022-11-16T10:51:16.865Z,2.40
2022-11-16T10:52:16.845Z,2.20
2022-11-16T10:53:16.837Z,2.00
2022-11-16T10:54:16.824Z,1.90
2022-11-16T10:55:16.823Z,2.00
2022-11-16T10:56:16.843Z,2.40
2022-11-16T10:57:16.834Z,1.80
2022-11-16T10:58:16.797Z,2.20
2022-11-16T10:59:16.795Z,2.20
2022-11-16T11:00:22.053Z,1.90
2022-11-16T11:01:18.829Z,2.10
2022-11-16T11:02:16.774Z,2.10
2022-11-16T11:03:16.851Z,1.90
2022-11-16T11:04:16.804Z,1.70
2022-11-16T11:05:16.749Z,2.00
2022-11-16T11:06:16.789Z,1.70
2022-11-16T11:07:16.820Z,1.90
2022-11-16T11:08:16.732Z,2.00
2022-11-16T11:09:16.722Z,1.70
2022-11-16T11:10:16.794Z,1.70
2022-11-16T11:11:16.752Z,2.30
2022-11-16T11:12:16.702Z,1.60
2022-11-16T11:13:16.693Z,1.80
2022-11-16T11:14:16.722Z,1.60
2022-11-16T11:15:20.142Z,2.00
2022-11-16T11:16:17.689Z,1.50
2022-11-16T11:17:16.667Z,2.00
2022-11-16T11:18:16.704Z,2.00
2022-11-16T11:19:16.698Z,1.80
2022-11-16T11:20:16.940Z,1.80
2022-11-16T11:21:16.693Z,1.70
2022-11-16T11:22:16.645Z,1.60
2022-11-16T11:23:16.696Z,1.60
2022-11-16T11:24:43.343Z,1.70
2022-11-16T11:25:18.641Z,1.40
2022-11-16T11:26:16.619Z,1.60
2022-11-16T11:27:16.695Z,2.10
2022-11-16T11:28:16.639Z,1.90
2022-11-16T11:29:16.605Z,1.80
2022-11-16T11:30:16.646Z,2.00
2022-11-16T11:31:16.557Z,1.70
2022-11-16T11:32:20.942Z,1.80
2022-11-16T11:33:18.673Z,1.90
2022-11-16T11:34:16.647Z,1.50
2022-11-16T11:35:16.615Z,2.10
2022-11-16T11:36:16.711Z,1.80
2022-11-16T11:37:16.541Z,1.90
2022-11-16T11:38:16.547Z,1.70
2022-11-16T11:39:16.588Z,1.80
2022-11-16T11:40:17.622Z,1.40
2022-11-16T11:41:16.504Z,1.40
2022-11-16T11:42:16.515Z,1.80
2022-11-16T11:43:18.971Z,1.90
2022-11-16T11:44:17.512Z,1.90
2022-11-16T11:45:16.451Z,2.10
2022-11-16T11:46:16.489Z,1.50
2022-11-16T11:47:55.556Z,1.70
2022-11-16T11:48:18.464Z,1.70
2022-11-16T11:49:16.465Z,1.90
2022-11-16T11:50:16.432Z,1.80
2022-11-16T11:51:16.409Z,1.80
2022-11-16T11:52:16.695Z,2.00
2022-11-16T11:53:16.428Z,2.00
2022-11-16T11:54:16.406Z,2.50
2022-11-16T11:55:16.385Z,1.60
2022-11-16T11:56:16.378Z,1.70
2022-11-16T11:57:16.409Z,1.90
2022-11-16T11:58:16.367Z,2.00
2022-11-16T11:59:16.364Z,1.70
2022-11-16T12:00:16.382Z,1.90
2022-11-16T12:01:20.712Z,1.60
2022-11-16T12:02:18.381Z,1.70
2022-11-16T12:03:16.421Z,2.20
2022-11-16T12:04:16.308Z,2.00
2022-11-16T12:05:16.304Z,1.70
2022-11-16T12:06:16.302Z,2.30
2022-11-16T12:07:16.390Z,1.70
2022-11-16T12:08:16.291Z,1.80
2022-11-16T12:09:16.314Z,2.00
2022-11-16T12:10:16.264Z,1.50
2022-11-16T12:11:16.313Z,2.00
2022-11-16T12:12:16.400Z,2.10
2022-11-16T12:13:16.257Z,1.60
2022-11-16T12:14:16.248Z,1.90
2022-11-16T12:15:16.297Z,1.90
2022-11-16T12:16:16.240Z,2.30
2022-11-16T12:17:16.451Z,1.90
2022-11-16T12:18:16.264Z,1.90
2022-11-16T12:19:16.230Z,2.00
2022-11-16T12:20:16.211Z,2.10
2022-11-16T12:21:16.187Z,1.80
2022-11-16T12:22:16.212Z,1.50
2022-11-16T12:23:16.220Z,2.10
2022-11-16T12:24:16.324Z,1.90
2022-11-16T12:25:16.163Z,1.90
2022-11-16T12:26:16.150Z,2.00
2022-11-16T12:27:16.171Z,1.70
2022-11-16T12:28:16.136Z,1.90
2022-11-16T12:29:16.147Z,1.70
2022-11-16T12:30:16.152Z,2.10
2022-11-16T12:31:16.140Z,2.70
2022-11-16T12:32:16.107Z,1.80
2022-11-16T12:33:16.126Z,2.00
2022-11-16T12:34:16.204Z,2.00
2022-11-16T12:35:16.093Z,2.10
2022-11-16T12:36:16.106Z,1.90
2022-11-16T12:37:16.103Z,1.90
2022-11-16T12:38:16.075Z,1.60
2022-11-16T12:39:16.059Z,2.20
2022-11-16T12:40:16.260Z,1.90
2022-11-16T12:41:16.049Z,2.20
2022-11-16T12:42:16.074Z,1.90
2022-11-16T12:43:16.023Z,1.70
2022-11-16T12:44:16.019Z,2.60
2022-11-16T12:45:16.026Z,1.80
2022-11-16T12:46:16.030Z,2.80
2022-11-16T12:47:16.150Z,1.80
2022-11-16T12:48:16.003Z,1.90
2022-11-16T12:49:15.994Z,1.80
2022-11-16T12:50:16.019Z,2.00
2022-11-16T12:51:15.983Z,2.00
2022-11-16T12:52:15.961Z,1.90
2022-11-16T12:53:16.323Z,2.40
2022-11-16T12:54:15.948Z,2.10
2022-11-16T12:55:31.325Z,1.90
2022-11-16T12:56:18.055Z,1.60
2022-11-16T12:57:15.923Z,2.10
2022-11-16T12:58:16.043Z,1.80
2022-11-16T12:59:15.933Z,1.60
2022-11-16T13:00:15.924Z,1.60
2022-11-16T13:01:15.980Z,1.80
2022-11-16T13:02:15.888Z,1.70
2022-11-16T13:03:15.921Z,1.90
2022-11-16T13:04:15.871Z,1.90